createdAt,value
2023-05-05T00:01:57.944Z,5.30
2023-05-05T00:04:25.322Z,4.70
2023-05-05T00:06:52.622Z,5.07
2023-05-05T00:09:19.579Z,4.40
2023-05-05T00:11:46.839Z,4.60
2023-05-05T00:14:14.082Z,5.32
2023-05-05T00:16:41.465Z,4.90
2023-05-05T00:19:08.432Z,4.50
2023-05-05T00:21:35.642Z,4.75
2023-05-05T00:24:02.904Z,4.47
2023-05-05T00:26:30.150Z,4.43
2023-05-05T00:28:57.393Z,4.10
2023-05-05T00:31:24.720Z,4.90
2023-05-05T00:33:51.674Z,4.50
2023-05-05T00:36:19.011Z,7.03
2023-05-05T00:38:45.957Z,7.82
2023-05-05T00:41:13.593Z,8.75
2023-05-05T00:43:40.538Z,8.57
2023-05-05T00:46:27.025Z,9.10
2023-05-05T00:48:55.000Z,7.43
2023-05-05T00:51:23.101Z,7.88
2023-05-05T00:53:50.593Z,7.20
2023-05-05T00:56:20.102Z,5.88
2023-05-05T00:58:47.083Z,5.30
2023-05-05T01:01:15.687Z,5.30
2023-05-05T01:03:42.789Z,6.45
2023-05-05T01:06:22.160Z,7.85
2023-05-05T01:09:21.204Z,7.80
2023-05-05T01:11:58.653Z,6.88
2023-05-05T01:14:39.872Z,6.13
2023-05-05T01:17:17.707Z,5.82
2023-05-05T01:19:51.326Z,4.95
2023-05-05T01:22:22.432Z,4.95
2023-05-05T01:24:57.132Z,4.43
2023-05-05T01:28:03.361Z,4.73
2023-05-05T01:30:56.472Z,5.13
2023-05-05T01:33:27.650Z,5.70
2023-05-05T01:36:03.318Z,5.22
2023-05-05T01:38:38.148Z,5.13
2023-05-05T01:41:14.762Z,4.27
2023-05-05T01:43:46.347Z,5.10
2023-05-05T01:46:15.330Z,4.97
2023-05-05T01:48:44.306Z,4.75
2023-05-05T01:51:13.314Z,4.45
2023-05-05T01:53:41.890Z,4.30
2023-05-05T01:56:11.490Z,4.80
2023-05-05T01:58:39.758Z,4.55
2023-05-05T02:01:06.903Z,4.57
2023-05-05T02:03:37.719Z,5.80
2023-05-05T02:06:07.525Z,8.20
2023-05-05T02:08:37.204Z,8.75
2023-05-05T02:11:05.247Z,8.32
2023-05-05T02:13:32.982Z,7.00
2023-05-05T02:16:00.624Z,7.00
2023-05-05T02:18:28.810Z,7.90
2023-05-05T02:20:55.871Z,8.18
2023-05-05T02:23:23.479Z,7.13
2023-05-05T02:25:54.001Z,8.23
2023-05-05T02:28:50.765Z,8.88
2023-05-05T02:31:20.998Z,9.17
2023-05-05T02:33:51.126Z,8.75
2023-05-05T02:36:22.142Z,7.35
2023-05-05T02:38:59.288Z,6.70
2023-05-05T02:41:30.747Z,6.90
2023-05-05T02:44:03.378Z,7.50
2023-05-05T02:46:32.720Z,7.65
2023-05-05T02:49:00.154Z,7.18
2023-05-05T02:51:27.888Z,8.32
2023-05-05T02:53:57.391Z,7.53
2023-05-05T02:56:51.258Z,7.73
2023-05-05T02:59:38.416Z,5.97
2023-05-05T03:02:45.929Z,5.88
2023-05-05T03:05:27.306Z,5.30
2023-05-05T03:08:00.337Z,5.88
2023-05-05T03:10:31.271Z,7.47
2023-05-05T03:13:03.312Z,5.80
2023-05-05T03:15:46.126Z,5.70
2023-05-05T03:18:16.615Z,5.90
2023-05-05T03:20:49.230Z,6.63
2023-05-05T03:23:21.143Z,6.13
2023-05-05T03:25:52.160Z,7.80
2023-05-05T03:28:42.000Z,8.43
2023-05-05T03:31:18.825Z,8.38
2023-05-05T03:33:50.338Z,6.95
2023-05-05T03:36:20.113Z,7.63
2023-05-05T03:38:47.705Z,8.70
2023-05-05T03:41:15.165Z,9.10
2023-05-05T03:43:42.176Z,7.65
2023-05-05T03:46:10.481Z,8.40
2023-05-05T03:48:37.789Z,9.27
2023-05-05T03:51:05.210Z,8.75
2023-05-05T03:53:34.893Z,6.95
2023-05-05T03:56:05.941Z,6.38
2023-05-05T03:58:32.993Z,5.78
2023-05-05T04:01:00.340Z,6.03
2023-05-05T04:03:27.580Z,5.53
2023-05-05T04:05:56.116Z,5.32
2023-05-05T04:08:23.176Z,5.47
2023-05-05T04:10:51.875Z,5.75
2023-05-05T04:13:19.768Z,7.70
2023-05-05T04:15:47.994Z,7.40
2023-05-05T04:18:16.476Z,6.10
2023-05-05T04:20:44.048Z,6.05
2023-05-05T04:23:11.688Z,5.40
2023-05-05T04:25:39.697Z,5.68
2023-05-05T04:28:06.766Z,5.60
2023-05-05T04:30:34.189Z,5.32
2023-05-05T04:33:02.071Z,5.35
2023-05-05T04:35:30.130Z,6.93
2023-05-05T04:37:57.897Z,7.10
2023-05-05T04:40:26.520Z,7.70
2023-05-05T04:42:54.647Z,7.00
2023-05-05T04:45:22.420Z,7.00
2023-05-05T04:47:49.898Z,6.10
2023-05-05T04:50:17.673Z,5.68
2023-05-05T04:52:44.707Z,5.53
2023-05-05T04:55:12.273Z,5.30
2023-05-05T04:57:39.360Z,5.20
2023-05-05T05:00:08.082Z,5.57
2023-05-05T05:02:36.054Z,6.47
2023-05-05T05:05:03.886Z,5.80
2023-05-05T05:07:30.797Z,6.55
2023-05-05T05:09:58.568Z,7.93
2023-05-05T05:12:25.583Z,6.68
2023-05-05T05:14:52.850Z,7.60
2023-05-05T05:17:21.029Z,6.33
2023-05-05T05:19:49.379Z,6.53
2023-05-05T05:22:16.356Z,6.68
2023-05-05T05:24:44.533Z,7.63
2023-05-05T05:27:13.357Z,5.63
2023-05-05T05:29:44.268Z,5.67
2023-05-05T05:32:11.514Z,7.32
2023-05-05T05:34:39.144Z,6.70
2023-05-05T05:37:08.188Z,7.18
2023-05-05T05:39:36.660Z,7.90
2023-05-05T05:42:04.120Z,7.90
2023-05-05T05:44:32.975Z,7.07
2023-05-05T05:47:00.156Z,6.38
2023-05-05T05:49:27.632Z,6.95
2023-05-05T05:51:55.673Z,6.55
2023-05-05T05:54:23.395Z,6.10
2023-05-05T05:56:50.442Z,6.13
2023-05-05T05:59:17.720Z,5.68
2023-05-05T06:01:44.736Z,5.80
2023-05-05T06:04:13.453Z,5.88
2023-05-05T06:06:41.614Z,4.97
2023-05-05T06:09:08.950Z,4.90
2023-05-05T06:11:37.214Z,6.10
2023-05-05T06:14:04.518Z,5.75
2023-05-05T06:16:31.677Z,6.07
2023-05-05T06:19:02.469Z,6.20
2023-05-05T06:21:30.003Z,5.40
2023-05-05T06:23:57.282Z,5.50
2023-05-05T06:26:27.131Z,4.90
2023-05-05T06:28:54.424Z,4.53
2023-05-05T06:31:21.444Z,4.50
2023-05-05T06:33:48.725Z,4.68
2023-05-05T06:36:15.668Z,4.90
2023-05-05T06:38:43.013Z,5.00
2023-05-05T06:41:09.992Z,4.82
2023-05-05T06:43:37.402Z,5.30
2023-05-05T06:46:07.952Z,4.90
2023-05-05T06:48:35.208Z,4.78
2023-05-05T06:51:02.935Z,4.80
2023-05-05T06:53:30.280Z,5.18
2023-05-05T06:55:57.251Z,6.00
2023-05-05T06:58:24.544Z,6.30
2023-05-05T07:00:52.024Z,5.78
2023-05-05T07:03:19.625Z,7.68
2023-05-05T07:05:46.934Z,9.23
2023-05-05T07:08:14.199Z,9.33
2023-05-05T07:10:41.185Z,9.40
2023-05-05T07:13:08.622Z,9.27
2023-05-05T07:15:36.223Z,10.35
2023-05-05T07:18:03.737Z,12.63
2023-05-05T07:20:30.684Z,10.93
2023-05-05T07:22:57.998Z,10.38
2023-05-05T07:25:24.953Z,12.35
2023-05-05T07:27:52.350Z,10.05
2023-05-05T07:30:19.857Z,9.63
2023-05-05T07:32:47.600Z,9.73
2023-05-05T07:35:14.672Z,8.23
2023-05-05T07:37:42.294Z,9.18
2023-05-05T07:40:10.147Z,8.68
2023-05-05T07:42:38.037Z,6.95
2023-05-05T07:45:06.239Z,7.13
2023-05-05T07:47:33.631Z,7.10
2023-05-05T07:50:01.426Z,10.38
2023-05-05T07:52:44.202Z,9.48
2023-05-05T07:55:15.282Z,6.90
2023-05-05T07:57:42.622Z,4.93
2023-05-05T08:00:11.140Z,3.83
2023-05-05T08:02:42.062Z,4.15
2023-05-05T08:05:09.767Z,4.82
2023-05-05T08:07:41.692Z,4.30
2023-05-05T08:10:12.489Z,4.03
2023-05-05T08:12:40.717Z,3.78
2023-05-05T08:15:08.823Z,4.55
2023-05-05T08:18:02.936Z,4.65
2023-05-05T08:20:30.145Z,4.00
2023-05-05T08:22:57.493Z,3.37
2023-05-05T08:25:27.073Z,3.05
2023-05-05T08:27:54.670Z,3.38
2023-05-05T08:30:22.467Z,2.97
2023-05-05T08:32:49.818Z,3.25
2023-05-05T08:35:16.874Z,3.23
2023-05-05T08:37:44.201Z,4.50
2023-05-05T08:40:16.133Z,3.63
2023-05-05T08:42:45.743Z,3.47
2023-05-05T08:45:12.983Z,3.70
2023-05-05T08:47:40.493Z,4.30
2023-05-05T08:50:10.644Z,3.30
2023-05-05T08:52:44.730Z,3.53
2023-05-05T08:55:24.330Z,5.40
2023-05-05T08:57:54.770Z,4.25
2023-05-05T09:00:22.388Z,4.10
2023-05-05T09:02:50.257Z,2.15
2023-05-05T09:05:18.487Z,2.00
2023-05-05T09:07:47.537Z,1.90
2023-05-05T09:10:14.762Z,1.60
2023-05-05T09:12:42.358Z,2.83
2023-05-05T09:15:11.783Z,4.50
2023-05-05T09:17:39.924Z,4.78
2023-05-05T09:20:10.116Z,3.92
2023-05-05T09:22:45.160Z,4.07
2023-05-05T09:25:14.630Z,3.37
2023-05-05T09:27:48.117Z,3.83
2023-05-05T09:30:24.524Z,3.50
2023-05-05T09:32:55.576Z,3.00
2023-05-05T09:35:23.741Z,3.20
2023-05-05T09:37:51.076Z,2.90
2023-05-05T09:40:20.425Z,2.50
2023-05-05T09:42:48.047Z,2.42
2023-05-05T09:45:17.771Z,2.40
2023-05-05T09:47:46.646Z,3.83
2023-05-05T09:50:16.301Z,3.30
2023-05-05T09:52:54.009Z,3.97
2023-05-05T09:55:21.105Z,3.30
2023-05-05T09:57:48.401Z,4.50
2023-05-05T10:00:16.061Z,3.95
2023-05-05T10:02:43.634Z,3.93
2023-05-05T10:05:15.849Z,3.63
2023-05-05T10:07:46.209Z,3.40
2023-05-05T10:10:17.437Z,2.90
2023-05-05T10:12:47.787Z,2.90
2023-05-05T10:15:16.232Z,2.60
2023-05-05T10:20:19.452Z,2.60
2023-05-05T10:22:53.568Z,2.45
2023-05-05T10:25:29.172Z,2.20
2023-05-05T10:27:59.800Z,2.43
2023-05-05T10:30:30.676Z,2.20
2023-05-05T10:35:43.785Z,2.05
2023-05-05T10:38:13.331Z,2.03
2023-05-05T10:40:45.607Z,2.50
2023-05-05T10:43:15.985Z,2.80
2023-05-05T10:45:43.843Z,2.50
2023-05-05T10:48:18.919Z,2.20
2023-05-05T10:50:51.683Z,2.45
2023-05-05T10:53:41.454Z,2.43
2023-05-05T10:56:31.616Z,2.17
2023-05-05T10:59:00.468Z,3.00
2023-05-05T11:01:35.652Z,3.10
2023-05-05T11:04:24.758Z,2.60
2023-05-05T11:07:12.675Z,2.50
2023-05-05T11:09:56.538Z,2.10
2023-05-05T11:12:23.774Z,2.10
2023-05-05T11:15:22.291Z,2.60
2023-05-05T11:17:49.568Z,3.00
2023-05-05T11:20:17.125Z,2.70
2023-05-05T11:23:04.283Z,2.80
2023-05-05T11:25:34.816Z,2.50
2023-05-05T11:28:06.892Z,2.60
2023-05-05T11:30:34.830Z,2.40
2023-05-05T11:33:23.670Z,2.30
2023-05-05T11:35:55.566Z,2.30
2023-05-05T11:38:28.728Z,2.50
2023-05-05T11:41:04.620Z,2.63
2023-05-05T11:43:31.641Z,2.10
2023-05-05T11:46:15.440Z,2.23
2023-05-05T11:48:46.397Z,2.17
2023-05-05T11:51:15.259Z,2.30
2023-05-05T11:53:49.290Z,2.40
2023-05-05T11:56:21.995Z,2.05
2023-05-05T11:58:49.821Z,1.90
2023-05-05T12:01:17.673Z,2.50
2023-05-05T12:03:46.058Z,2.13
2023-05-05T12:06:13.645Z,2.38
2023-05-05T12:08:41.439Z,2.63
2023-05-05T12:11:10.836Z,2.83
2023-05-05T12:13:38.033Z,2.70
2023-05-05T12:16:13.298Z,2.15
2023-05-05T12:18:41.395Z,2.92
2023-05-05T12:21:19.462Z,2.83
2023-05-05T12:23:46.938Z,3.40
2023-05-05T12:26:31.734Z,2.70
2023-05-05T12:29:00.236Z,2.60
2023-05-05T12:31:35.132Z,2.90
2023-05-05T12:34:03.772Z,3.00
2023-05-05T12:36:31.825Z,2.60
2023-05-05T12:38:58.810Z,2.20
2023-05-05T12:41:26.222Z,2.20
2023-05-05T12:43:59.752Z,2.40
2023-05-05T12:46:29.800Z,2.83
2023-05-05T12:49:04.852Z,3.10
2023-05-05T12:51:33.324Z,2.72
2023-05-05T12:54:04.729Z,3.00
2023-05-05T12:56:34.884Z,2.88
2023-05-05T12:59:09.634Z,2.90
2023-05-05T13:01:47.797Z,3.00
2023-05-05T13:04:15.281Z,3.00
2023-05-05T13:06:44.861Z,2.60
2023-05-05T13:09:30.635Z,2.90
2023-05-05T13:11:58.148Z,3.40
2023-05-05T13:14:25.155Z,3.40
2023-05-05T13:16:53.322Z,2.75
2023-05-05T13:19:20.365Z,2.47
2023-05-05T13:21:47.638Z,2.90
2023-05-05T13:24:28.100Z,2.80
2023-05-05T13:26:59.104Z,2.23
2023-05-05T13:29:30.406Z,2.40
2023-05-05T13:31:58.899Z,2.72
2023-05-05T13:34:25.948Z,2.70
2023-05-05T13:36:53.295Z,2.50
2023-05-05T13:39:20.306Z,2.70
2023-05-05T13:41:47.658Z,2.83
2023-05-05T13:44:14.749Z,2.80
2023-05-05T13:46:43.450Z,2.63
2023-05-05T13:49:10.470Z,2.70
2023-05-05T13:51:39.172Z,2.60
2023-05-05T13:54:07.313Z,2.50
2023-05-05T13:56:34.899Z,2.25
2023-05-05T13:59:02.639Z,2.20
2023-05-05T14:01:30.890Z,2.58
2023-05-05T14:03:58.256Z,2.57
2023-05-05T14:06:26.265Z,2.50
2023-05-05T14:08:53.575Z,2.05
2023-05-05T14:11:21.198Z,2.63
2023-05-05T14:13:48.344Z,2.28
2023-05-05T14:16:15.913Z,2.40
2023-05-05T14:18:42.969Z,2.08
2023-05-05T14:21:10.771Z,2.25
2023-05-05T14:23:37.757Z,2.28
2023-05-05T14:26:05.420Z,1.80
2023-05-05T14:28:32.497Z,2.30
2023-05-05T14:30:59.797Z,2.40
2023-05-05T14:33:26.834Z,2.20
2023-05-05T14:35:54.115Z,2.20
2023-05-05T14:38:21.657Z,1.92
2023-05-05T14:40:49.072Z,2.10
2023-05-05T14:43:16.018Z,2.03
2023-05-05T14:45:44.444Z,2.13
2023-05-05T14:48:11.482Z,2.05
2023-05-05T14:50:40.734Z,2.03
2023-05-05T14:53:07.744Z,2.10
2023-05-05T14:55:34.985Z,2.20
2023-05-05T14:58:02.110Z,2.20
2023-05-05T15:00:29.403Z,2.40
2023-05-05T15:02:56.631Z,2.45
2023-05-05T15:05:23.975Z,2.20
2023-05-05T15:07:51.135Z,2.30
2023-05-05T15:10:21.158Z,2.13
2023-05-05T15:12:51.214Z,2.35
2023-05-05T15:15:18.537Z,2.53
2023-05-05T15:17:45.658Z,3.35
2023-05-05T15:20:13.088Z,2.50
2023-05-05T15:22:40.074Z,2.30
2023-05-05T15:25:12.411Z,2.10
2023-05-05T15:27:39.906Z,1.90
2023-05-05T15:30:08.008Z,2.05
2023-05-05T15:32:35.151Z,2.00
2023-05-05T15:35:02.538Z,1.92
2023-05-05T15:37:29.764Z,2.30
2023-05-05T15:39:57.216Z,2.35
2023-05-05T15:42:24.404Z,2.80
2023-05-05T15:44:52.090Z,2.47
2023-05-05T15:47:19.076Z,2.22
2023-05-05T15:49:46.449Z,2.17
2023-05-05T15:52:14.159Z,3.28
2023-05-05T15:54:41.700Z,2.55
2023-05-05T15:57:08.828Z,2.60
2023-05-05T15:59:36.147Z,2.15
2023-05-05T16:02:03.149Z,1.95
2023-05-05T16:04:30.843Z,2.30
2023-05-05T16:06:58.330Z,2.60
2023-05-05T16:09:25.605Z,2.00
2023-05-05T16:11:55.288Z,2.10
2023-05-05T16:14:22.629Z,1.80
2023-05-05T16:16:49.728Z,2.38
2023-05-05T16:19:18.339Z,2.00
2023-05-05T16:21:45.681Z,1.80
2023-05-05T16:24:16.670Z,2.10
2023-05-05T16:26:44.388Z,2.10
2023-05-05T16:29:12.263Z,2.40
2023-05-05T16:31:39.676Z,2.42
2023-05-05T16:34:07.358Z,2.30
2023-05-05T16:36:34.709Z,2.55
2023-05-05T16:39:01.993Z,2.20
2023-05-05T16:41:29.030Z,2.50
2023-05-05T16:43:56.528Z,2.47
2023-05-05T16:46:23.532Z,2.47
2023-05-05T16:48:51.054Z,2.63
2023-05-05T16:51:18.050Z,2.70
2023-05-05T16:53:46.581Z,2.78
2023-05-05T16:56:14.561Z,2.28
2023-05-05T16:58:41.794Z,2.60
2023-05-05T17:01:08.839Z,2.15
2023-05-05T17:03:36.373Z,2.10
2023-05-05T17:06:03.553Z,1.70
2023-05-05T17:08:30.952Z,2.00
2023-05-05T17:10:58.494Z,1.50
2023-05-05T17:13:25.743Z,1.80
2023-05-05T17:15:52.720Z,1.70
2023-05-05T17:18:21.982Z,1.70
2023-05-05T17:20:49.574Z,1.52
2023-05-05T17:23:16.923Z,1.60
2023-05-05T17:25:43.875Z,1.30
2023-05-05T17:28:11.179Z,1.23
2023-05-05T17:30:38.136Z,1.20
2023-05-05T17:33:05.726Z,1.17
2023-05-05T17:35:33.085Z,1.30
2023-05-05T17:38:00.722Z,1.60
2023-05-05T17:40:27.666Z,1.40
2023-05-05T17:42:55.108Z,1.70
2023-05-05T17:45:22.120Z,1.70
2023-05-05T17:47:49.388Z,2.07
2023-05-05T17:50:16.425Z,2.10
2023-05-05T17:52:45.255Z,2.00
2023-05-05T17:55:12.917Z,2.30
2023-05-05T17:57:40.298Z,2.30
2023-05-05T18:00:07.969Z,2.20
2023-05-05T18:02:41.308Z,2.40
2023-05-05T18:05:09.331Z,2.17
2023-05-05T18:07:38.874Z,3.25
2023-05-05T18:10:10.847Z,2.75
2023-05-05T18:12:38.406Z,2.10
2023-05-05T18:15:06.046Z,2.00
2023-05-05T18:17:33.304Z,2.85
2023-05-05T18:20:00.539Z,2.10
2023-05-05T18:22:27.801Z,2.20
2023-05-05T18:24:59.323Z,2.07
2023-05-05T18:27:28.030Z,2.30
2023-05-05T18:29:55.403Z,2.20
2023-05-05T18:32:22.879Z,2.17
2023-05-05T18:34:50.272Z,2.20
2023-05-05T18:37:17.583Z,2.43
2023-05-05T18:39:45.308Z,2.90
2023-05-05T18:42:13.252Z,2.20
2023-05-05T18:44:40.317Z,2.53
2023-05-05T18:47:08.218Z,3.10
2023-05-05T18:49:35.467Z,4.20
2023-05-05T18:52:02.759Z,4.57
2023-05-05T18:54:29.854Z,3.70
2023-05-05T18:56:57.569Z,3.10
2023-05-05T18:59:24.564Z,3.22
2023-05-05T19:01:52.537Z,4.57
2023-05-05T19:04:30.865Z,4.70
2023-05-05T19:06:59.656Z,7.68
2023-05-05T19:09:26.925Z,7.72
2023-05-05T19:11:54.261Z,5.93
2023-05-05T19:14:22.360Z,5.93
2023-05-05T19:16:49.690Z,4.47
2023-05-05T19:19:17.632Z,3.50
2023-05-05T19:21:44.953Z,4.88
2023-05-05T19:24:12.005Z,4.35
2023-05-05T19:26:39.333Z,4.00
2023-05-05T19:29:06.304Z,2.63
2023-05-05T19:31:33.618Z,2.50
2023-05-05T19:34:02.862Z,2.40
2023-05-05T19:36:33.915Z,2.45
2023-05-05T19:39:02.064Z,2.10
2023-05-05T19:41:31.002Z,1.92
2023-05-05T19:43:57.957Z,2.40
2023-05-05T19:46:26.708Z,2.75
2023-05-05T19:48:53.949Z,3.00
2023-05-05T19:51:21.356Z,2.60
2023-05-05T19:53:48.500Z,3.15
2023-05-05T19:56:17.158Z,3.13
2023-05-05T19:58:57.517Z,3.28
2023-05-05T20:01:25.739Z,2.90
2023-05-05T20:03:54.772Z,2.63
2023-05-05T20:06:23.368Z,2.72
2023-05-05T20:08:51.045Z,3.70
2023-05-05T20:11:18.460Z,4.05
2023-05-05T20:13:45.498Z,3.55
2023-05-05T20:16:12.981Z,3.07
2023-05-05T20:18:40.462Z,2.80
2023-05-05T20:21:07.783Z,2.85
2023-05-05T20:23:34.774Z,2.70
2023-05-05T20:26:02.326Z,2.53
2023-05-05T20:28:31.601Z,2.40
2023-05-05T20:31:00.790Z,2.35
2023-05-05T20:33:29.104Z,2.28
2023-05-05T20:35:56.532Z,2.05
2023-05-05T20:38:23.572Z,2.13
2023-05-05T20:40:52.475Z,1.90
2023-05-05T20:43:19.705Z,2.42
2023-05-05T20:45:46.969Z,2.25
2023-05-05T20:48:13.950Z,2.05
2023-05-05T20:50:41.959Z,2.38
2023-05-05T20:53:10.019Z,2.30
2023-05-05T20:55:37.649Z,2.58
2023-05-05T20:58:07.089Z,2.40
2023-05-05T21:00:34.958Z,2.80
2023-05-05T21:03:03.000Z,2.60
2023-05-05T21:05:31.826Z,2.80
2023-05-05T21:08:00.898Z,2.53
2023-05-05T21:10:35.041Z,2.95
2023-05-05T21:13:02.818Z,2.83
2023-05-05T21:15:30.585Z,2.45
2023-05-05T21:17:57.744Z,2.63
2023-05-05T21:20:25.070Z,2.70
2023-05-05T21:22:51.956Z,2.90
2023-05-05T21:25:20.928Z,3.60
2023-05-05T21:27:49.018Z,4.45
2023-05-05T21:30:17.098Z,3.83
2023-05-05T21:32:44.615Z,5.00
2023-05-05T21:35:12.075Z,4.30
2023-05-05T21:37:39.559Z,4.32
2023-05-05T21:40:11.141Z,4.53
2023-05-05T21:42:38.419Z,3.97
2023-05-05T21:45:06.295Z,3.22
2023-05-05T21:47:33.310Z,3.70
2023-05-05T21:50:00.981Z,4.35
2023-05-05T21:52:27.990Z,4.10
2023-05-05T21:54:55.320Z,4.90
2023-05-05T21:57:22.275Z,5.28
2023-05-05T21:59:49.512Z,4.15
2023-05-05T22:02:16.421Z,3.40
2023-05-05T22:04:46.258Z,8.15
2023-05-05T22:07:13.228Z,9.70
2023-05-05T22:09:40.490Z,9.98
2023-05-05T22:12:07.410Z,10.18
2023-05-05T22:14:34.630Z,11.77
2023-05-05T22:17:01.569Z,8.20
2023-05-05T22:19:28.895Z,7.10
2023-05-05T22:21:57.568Z,6.15
2023-05-05T22:24:24.859Z,9.45
2023-05-05T22:26:51.762Z,6.93
2023-05-05T22:29:18.993Z,8.70
2023-05-05T22:31:45.933Z,8.47
2023-05-05T22:34:13.182Z,7.32
2023-05-05T22:36:40.146Z,5.78
2023-05-05T22:39:07.903Z,4.80
2023-05-05T22:41:34.851Z,4.82
2023-05-05T22:44:02.212Z,5.10
2023-05-05T22:46:29.514Z,7.30
2023-05-05T22:48:56.841Z,8.43
2023-05-05T22:51:23.824Z,8.23
2023-05-05T22:53:51.454Z,8.77
2023-05-05T22:56:18.611Z,8.53
2023-05-05T22:58:47.072Z,8.68
2023-05-05T23:01:14.370Z,8.75
2023-05-05T23:03:41.838Z,7.20
2023-05-05T23:06:09.746Z,6.20
2023-05-05T23:08:36.952Z,4.83
2023-05-05T23:11:03.925Z,4.35
2023-05-05T23:13:31.199Z,4.13
2023-05-05T23:15:58.107Z,4.03
2023-05-05T23:18:25.323Z,3.95
2023-05-05T23:20:52.235Z,4.20
2023-05-05T23:23:19.506Z,5.53
2023-05-05T23:25:46.645Z,4.50
2023-05-05T23:28:13.870Z,3.47
2023-05-05T23:30:40.850Z,6.35
2023-05-05T23:33:08.177Z,7.70
2023-05-05T23:35:35.141Z,8.40
2023-05-05T23:38:02.339Z,7.60
2023-05-05T23:40:29.276Z,6.45
2023-05-05T23:42:56.506Z,5.10
2023-05-05T23:45:23.392Z,5.03
2023-05-05T23:47:50.666Z,4.75
2023-05-05T23:50:17.538Z,4.45
2023-05-05T23:52:44.819Z,4.60
2023-05-05T23:55:11.997Z,4.35
2023-05-05T23:57:39.546Z,4.87
